createdAt,value
2019-04-19T00:03:24.226Z,102507.04
2019-04-19T00:08:37.295Z,102521.83
2019-04-19T00:13:28.418Z,102510.55
2019-04-19T00:18:31.119Z,102501.91
2019-04-19T00:23:38.325Z,102510.56
2019-04-19T00:28:44.945Z,102505.87
2019-04-19T00:33:47.569Z,102507.48
2019-04-19T00:39:06.426Z,102501.55
2019-04-19T00:44:38.536Z,102500.80
2019-04-19T00:49:33.932Z,102501.39
2019-04-19T00:54:45.554Z,102504.03
2019-04-19T00:59:40.501Z,102507.03
2019-04-19T01:04:39.686Z,102511.42
2019-04-19T01:10:02.747Z,102514.61
2019-04-19T01:15:01.026Z,102514.64
2019-04-19T01:19:56.882Z,102513.08
2019-04-19T01:24:56.318Z,102513.58
2019-04-19T01:30:00.961Z,102519.82
2019-04-19T01:35:09.716Z,102517.28
2019-04-19T01:40:22.486Z,102515.73
2019-04-19T01:45:42.391Z,102524.52
2019-04-19T01:51:07.772Z,102527.95
2019-04-19T01:55:53.199Z,102524.47
2019-04-19T02:00:58.738Z,102531.87
2019-04-19T02:06:05.152Z,102535.51
2019-04-19T02:12:03.531Z,102529.84
2019-04-19T02:17:02.578Z,102527.17
2019-04-19T02:22:11.385Z,102531.73
2019-04-19T02:27:10.101Z,102530.55
2019-04-19T02:32:43.313Z,102529.63
2019-04-19T02:37:37.628Z,102536.52
2019-04-19T02:42:44.862Z,102543.03
2019-04-19T02:48:12.988Z,102541.38
2019-04-19T02:52:56.637Z,102537.02
2019-04-19T02:58:04.534Z,102543.59
2019-04-19T03:07:57.637Z,102554.89
2019-04-19T03:13:19.546Z,102546.56
2019-04-19T03:18:29.043Z,102552.56
2019-04-19T03:23:21.798Z,102548.11
2019-04-19T03:28:22.130Z,102559.09
2019-04-19T03:38:39.818Z,102575.69
2019-04-19T03:44:03.691Z,102567.44
2019-04-19T03:49:19.600Z,102572.37
2019-04-19T03:54:19.155Z,102583.34
2019-04-19T03:59:02.854Z,102584.16
2019-04-19T04:04:11.950Z,102589.10
2019-04-19T04:09:25.113Z,102586.95
2019-04-19T04:14:49.568Z,102593.55
2019-04-19T04:19:39.655Z,102595.80
2019-04-19T04:24:55.446Z,102592.20
2019-04-19T04:30:00.124Z,102597.41
2019-04-19T04:35:10.792Z,102601.50
2019-04-19T04:39:57.679Z,102598.00
2019-04-19T04:45:22.995Z,102606.59
2019-04-19T04:51:04.447Z,102601.47
2019-04-19T04:55:57.921Z,102606.97
2019-04-19T05:01:05.006Z,102615.77
2019-04-19T05:06:22.800Z,102612.22
2019-04-19T05:11:24.426Z,102625.28
2019-04-19T05:21:38.844Z,102627.80
2019-04-19T05:26:48.135Z,102636.08
2019-04-19T05:31:35.749Z,102630.37
2019-04-19T05:36:54.603Z,102633.70
2019-04-19T05:42:03.757Z,102627.95
2019-04-19T05:47:17.198Z,102636.87
2019-04-19T05:52:19.154Z,102639.59
2019-04-19T05:57:28.107Z,102639.34
2019-04-19T06:02:19.218Z,102641.33
2019-04-19T06:07:31.743Z,102638.23
2019-04-19T06:12:26.862Z,102647.69
2019-04-19T06:17:56.348Z,102646.19
2019-04-19T06:23:02.530Z,102655.98
2019-04-19T06:33:13.787Z,102653.41
2019-04-19T06:37:59.247Z,102655.53
2019-04-19T06:43:11.136Z,102657.98
2019-04-19T06:48:12.801Z,102671.03
2019-04-19T06:53:12.280Z,102661.35
2019-04-19T06:58:22.292Z,102672.73
2019-04-19T07:03:19.822Z,102671.13
2019-04-19T07:13:38.330Z,102672.81
2019-04-19T07:18:42.513Z,102677.09
2019-04-19T07:23:54.340Z,102675.95
2019-04-19T07:28:41.908Z,102680.50
2019-04-19T07:34:07.418Z,102684.05
2019-04-19T07:39:09.462Z,102678.38
2019-04-19T07:44:21.333Z,102688.38
2019-04-19T07:49:15.312Z,102692.68
2019-04-19T07:54:25.271Z,102701.26
2019-04-19T07:59:55.688Z,102690.75
2019-04-19T08:10:24.786Z,102696.11
2019-04-19T08:15:15.447Z,102703.92
2019-04-19T08:30:04.575Z,102709.00
2019-04-19T08:35:09.383Z,102712.51
2019-04-19T08:40:33.564Z,102718.73
2019-04-19T08:45:33.057Z,102726.91
2019-04-19T08:50:48.228Z,102722.98
2019-04-19T08:56:05.616Z,102714.41
2019-04-19T09:01:17.479Z,102708.78
2019-04-19T09:07:05.757Z,102697.39
2019-04-19T09:11:16.744Z,102698.31
2019-04-19T09:16:20.429Z,102696.98
2019-04-19T09:21:21.560Z,102691.60
2019-04-19T09:26:36.919Z,102702.50
2019-04-19T09:31:32.255Z,102701.09
2019-04-19T09:36:35.796Z,102696.61
2019-04-19T09:41:38.697Z,102693.38
2019-04-19T09:46:36.029Z,102691.55
2019-04-19T09:51:55.590Z,102683.06
2019-04-19T09:56:57.946Z,102686.59
2019-04-19T10:01:52.217Z,102681.11
2019-04-19T10:06:54.214Z,102680.76
2019-04-19T10:11:59.161Z,102671.94
2019-04-19T10:17:12.350Z,102669.27
2019-04-19T10:22:16.597Z,102666.81
2019-04-19T10:27:24.867Z,102661.05
2019-04-19T10:32:30.625Z,102659.26
2019-04-19T10:37:33.724Z,102651.34
2019-04-19T10:42:36.563Z,102644.75
2019-04-19T10:47:39.969Z,102650.64
2019-04-19T10:52:43.687Z,102648.59
2019-04-19T10:57:47.348Z,102642.00
2019-04-19T11:02:50.316Z,102651.97
2019-04-19T11:07:53.759Z,102653.48
2019-04-19T11:12:56.814Z,102650.34
2019-04-19T11:17:59.555Z,102646.46
2019-04-19T11:23:02.278Z,102645.50
2019-04-19T11:28:05.058Z,102639.42
2019-04-19T11:33:16.880Z,102635.83
2019-04-19T11:38:20.922Z,102636.47
2019-04-19T11:43:25.148Z,102628.06
2019-04-19T11:48:30.336Z,102635.62
2019-04-19T11:53:42.864Z,102631.01
2019-04-19T11:58:47.097Z,102625.39
2019-04-19T12:03:50.096Z,102617.19
2019-04-19T12:08:54.026Z,102623.81
2019-04-19T12:13:58.355Z,102620.17
2019-04-19T12:19:02.170Z,102613.39
2019-04-19T12:24:04.936Z,102604.94
2019-04-19T12:29:07.657Z,102606.64
2019-04-19T12:34:11.411Z,102612.96
2019-04-19T12:39:15.113Z,102605.92
2019-04-19T12:44:17.827Z,102608.94
2019-04-19T12:49:20.804Z,102608.55
2019-04-19T12:54:23.754Z,102597.03
2019-04-19T12:59:26.559Z,102600.42
2019-04-19T13:04:36.202Z,102594.13
2019-04-19T13:09:39.319Z,102582.77
2019-04-19T13:14:42.135Z,102582.22
2019-04-19T13:19:45.091Z,102575.09
2019-04-19T13:24:48.178Z,102577.25
2019-04-19T13:29:52.000Z,102577.64
2019-04-19T13:34:55.080Z,102567.33
2019-04-19T13:40:17.509Z,102554.34
2019-04-19T13:45:26.855Z,102556.63
2019-04-19T13:50:32.182Z,102552.97
2019-04-19T13:55:30.677Z,102562.09
2019-04-19T14:00:46.805Z,102551.67
2019-04-19T14:05:50.415Z,102544.63
2019-04-19T14:10:53.181Z,102542.98
2019-04-19T14:15:56.555Z,102544.99
2019-04-19T14:21:00.966Z,102540.11
2019-04-19T14:26:05.537Z,102537.00
2019-04-19T14:31:08.514Z,102530.92
2019-04-19T14:36:11.224Z,102525.43
2019-04-19T14:41:13.972Z,102525.63
2019-04-19T14:46:16.791Z,102523.12
2019-04-19T14:51:25.813Z,102520.88
2019-04-19T14:56:24.247Z,102520.41
2019-04-19T15:01:46.898Z,102520.88
2019-04-19T15:06:49.815Z,102511.78
2019-04-19T15:11:52.717Z,102501.66
2019-04-19T15:16:56.755Z,102499.33
2019-04-19T15:21:59.801Z,102499.55
2019-04-19T15:27:03.093Z,102496.95
2019-04-19T15:32:06.341Z,102499.11
2019-04-19T15:37:09.635Z,102496.27
2019-04-19T15:42:12.437Z,102489.11
2019-04-19T15:47:15.166Z,102498.36
2019-04-19T15:52:18.104Z,102495.66
2019-04-19T15:57:20.824Z,102500.41
2019-04-19T16:02:42.282Z,102491.30
2019-04-19T16:08:11.143Z,102494.75
2019-04-19T16:13:13.969Z,102488.08
2019-04-19T16:18:20.036Z,102490.77
2019-04-19T16:23:23.894Z,102490.86
2019-04-19T16:28:27.462Z,102491.72
2019-04-19T16:33:30.386Z,102488.77
2019-04-19T16:38:33.143Z,102493.28
2019-04-19T16:43:35.886Z,102489.06
2019-04-19T16:48:38.607Z,102490.19
2019-04-19T16:53:42.232Z,102495.25
2019-04-19T16:58:45.148Z,102491.05
2019-04-19T17:03:47.907Z,102492.25
2019-04-19T17:08:52.633Z,102488.36
2019-04-19T17:13:56.591Z,102494.71
2019-04-19T17:19:22.071Z,102484.73
2019-04-19T17:24:26.867Z,102493.80
2019-04-19T17:29:31.055Z,102488.88
2019-04-19T17:34:34.217Z,102490.23
2019-04-19T17:39:38.196Z,102495.20
2019-04-19T17:44:41.744Z,102494.27
2019-04-19T17:49:46.548Z,102502.78
2019-04-19T17:55:04.964Z,102503.59
2019-04-19T17:59:56.328Z,102512.24
2019-04-19T18:05:00.024Z,102522.30
2019-04-19T18:10:09.622Z,102515.06
2019-04-19T18:15:09.832Z,102522.98
2019-04-19T18:20:19.075Z,102529.09
2019-04-19T18:25:20.147Z,102529.06
2019-04-19T18:30:24.564Z,102536.41
2019-04-19T18:35:31.796Z,102539.56
2019-04-19T18:40:35.344Z,102546.31
2019-04-19T18:45:41.966Z,102547.80
2019-04-19T18:50:50.412Z,102556.72
2019-04-19T18:55:53.581Z,102554.98
2019-04-19T19:00:57.012Z,102555.66
2019-04-19T19:06:04.097Z,102558.19
2019-04-19T19:11:13.045Z,102563.23
2019-04-19T19:16:18.569Z,102567.66
2019-04-19T19:21:18.100Z,102573.33
2019-04-19T19:26:31.869Z,102577.81
2019-04-19T19:31:29.646Z,102576.70
2019-04-19T19:36:37.936Z,102583.19
2019-04-19T19:42:32.577Z,102583.19
2019-04-19T19:47:25.130Z,102583.19
2019-04-19T19:52:18.450Z,102589.47
2019-04-19T19:57:23.009Z,102594.44
2019-04-19T20:02:23.566Z,102594.85
2019-04-19T20:07:20.667Z,102601.95
2019-04-19T20:12:26.479Z,102600.18
2019-04-19T20:17:29.279Z,102600.15
2019-04-19T20:22:39.126Z,102601.98
2019-04-19T20:27:44.870Z,102610.28
2019-04-19T20:32:49.918Z,102609.92
2019-04-19T20:37:52.046Z,102614.68
2019-04-19T20:43:16.585Z,102619.52
2019-04-19T20:48:07.901Z,102617.81
2019-04-19T20:53:29.255Z,102619.54
2019-04-19T20:58:34.324Z,102614.87
2019-04-19T21:03:34.334Z,102618.41
2019-04-19T21:08:42.365Z,102621.08
2019-04-19T21:13:45.850Z,102620.31
2019-04-19T21:18:49.440Z,102622.46
2019-04-19T21:24:01.503Z,102624.34
2019-04-19T21:28:59.192Z,102622.14
2019-04-19T21:34:05.983Z,102626.37
2019-04-19T21:39:11.973Z,102620.36
2019-04-19T21:44:17.940Z,102628.25
2019-04-19T21:49:22.804Z,102624.56
2019-04-19T21:54:26.434Z,102629.38
2019-04-19T21:59:34.553Z,102635.17
2019-04-19T22:04:41.150Z,102646.27
2019-04-19T22:09:43.379Z,102639.52
2019-04-19T22:14:44.435Z,102645.80
2019-04-19T22:19:47.728Z,102640.08
2019-04-19T22:24:51.393Z,102654.09
2019-04-19T22:29:55.571Z,102652.47
2019-04-19T22:35:00.756Z,102651.29
2019-04-19T22:40:04.869Z,102656.23
2019-04-19T22:45:11.658Z,102659.55
2019-04-19T22:50:19.391Z,102650.05
2019-04-19T22:55:19.113Z,102653.66
2019-04-19T23:00:24.729Z,102657.28
2019-04-19T23:05:36.578Z,102650.16
2019-04-19T23:10:45.038Z,102655.56
2019-04-19T23:15:39.139Z,102655.22
2019-04-19T23:20:43.388Z,102657.15
2019-04-19T23:25:57.081Z,102651.99
2019-04-19T23:30:51.753Z,102649.84
2019-04-19T23:35:55.628Z,102659.33
2019-04-19T23:40:59.277Z,102661.83
2019-04-19T23:46:03.389Z,102653.15
2019-04-19T23:51:06.399Z,102655.38
2019-04-19T23:56:19.903Z,102656.74
